US-1047 weather

CLOSED Braman Heliport
West Palm Beach, Florida, United States

Public forecast

Using degrees Fahrenheit for public forecast. Weather courtesy of forecast.io.

Closest aviation weather report (METAR) to Braman Heliport

Closest report is Palm Beach International Airport, 5.3 nm (9.8 km) SSW. Retrieved 2019/10/20 07:53 UTC (15 minutes ago):

KPBI 200753Z 18007KT 10SM SCT110 27/24 A2987 RMK AO2 SLP113 T02720239

Closest aviation forecast (TAF) to Braman Heliport

Closest forecast is Palm Beach International Airport, 5.3 nm (9.8 km) SSW. Retrieved 2019/10/20 06:49 UTC (1 hour ago):

TAF KPBI 200540Z 2006/2106 17010KT P6SM VCSH SCT020 BKN110 FM200900 21007KT P6SM VCSH FEW020 SCT110 FM201800 19010KT P6SM VCTS SCT035CB BKN120 FM210100 VRB03KT P6SM FEW050 SCT250